sensor_id;sensor_type;location;lat;lon;timestamp;P1;durP1;ratioP1;P2;durP2;ratioP2
70725;SDS011;58304;53.104;6.022;2022-07-23T00:02:05;3.22;;;1.83;;
70725;SDS011;58304;53.104;6.022;2022-07-23T00:04:32;3.95;;;1.67;;
70725;SDS011;58304;53.104;6.022;2022-07-23T00:06:58;3.15;;;1.50;;
70725;SDS011;58304;53.104;6.022;2022-07-23T00:09:23;3.53;;;1.80;;
70725;SDS011;58304;53.104;6.022;2022-07-23T00:11:49;4.55;;;1.80;;
70725;SDS011;58304;53.104;6.022;2022-07-23T00:14:15;3.75;;;2.30;;
70725;SDS011;58304;53.104;6.022;2022-07-23T00:16:40;4.22;;;1.95;;
70725;SDS011;58304;53.104;6.022;2022-07-23T00:19:13;2.75;;;1.50;;
70725;SDS011;58304;53.104;6.022;2022-07-23T00:21:39;2.45;;;1.52;;
70725;SDS011;58304;53.104;6.022;2022-07-23T00:24:07;2.40;;;1.30;;
70725;SDS011;58304;53.104;6.022;2022-07-23T00:26:33;2.38;;;1.20;;
70725;SDS011;58304;53.104;6.022;2022-07-23T00:28:59;2.28;;;1.40;;
70725;SDS011;58304;53.104;6.022;2022-07-23T00:31:25;2.80;;;1.55;;
70725;SDS011;58304;53.104;6.022;2022-07-23T00:33:50;3.80;;;2.00;;
70725;SDS011;58304;53.104;6.022;2022-07-23T00:36:17;3.10;;;2.00;;
70725;SDS011;58304;53.104;6.022;2022-07-23T00:38:43;3.47;;;2.20;;
70725;SDS011;58304;53.104;6.022;2022-07-23T00:41:08;5.93;;;2.42;;
70725;SDS011;58304;53.104;6.022;2022-07-23T00:43:34;3.85;;;2.35;;
70725;SDS011;58304;53.104;6.022;2022-07-23T00:46:00;5.13;;;2.50;;
70725;SDS011;58304;53.104;6.022;2022-07-23T00:48:26;5.05;;;2.00;;
70725;SDS011;58304;53.104;6.022;2022-07-23T00:50:51;6.00;;;2.00;;
70725;SDS011;58304;53.104;6.022;2022-07-23T00:53:18;3.67;;;1.80;;
70725;SDS011;58304;53.104;6.022;2022-07-23T00:55:45;4.82;;;2.60;;
70725;SDS011;58304;53.104;6.022;2022-07-23T00:58:10;4.68;;;2.60;;
70725;SDS011;58304;53.104;6.022;2022-07-23T01:00:36;4.82;;;2.75;;
70725;SDS011;58304;53.104;6.022;2022-07-23T01:03:02;5.10;;;2.90;;
70725;SDS011;58304;53.104;6.022;2022-07-23T01:05:28;5.57;;;3.03;;
70725;SDS011;58304;53.104;6.022;2022-07-23T01:07:54;5.13;;;2.60;;
70725;SDS011;58304;53.104;6.022;2022-07-23T01:10:25;5.15;;;2.20;;
70725;SDS011;58304;53.104;6.022;2022-07-23T01:13:02;5.43;;;2.58;;
70725;SDS011;58304;53.104;6.022;2022-07-23T01:15:30;5.05;;;2.53;;
70725;SDS011;58304;53.104;6.022;2022-07-23T01:17:56;6.35;;;2.95;;
70725;SDS011;58304;53.104;6.022;2022-07-23T01:20:23;5.18;;;2.70;;
70725;SDS011;58304;53.104;6.022;2022-07-23T01:22:49;4.55;;;2.83;;
70725;SDS011;58304;53.104;6.022;2022-07-23T01:25:16;5.13;;;2.20;;
70725;SDS011;58304;53.104;6.022;2022-07-23T01:27:41;4.20;;;2.28;;
70725;SDS011;58304;53.104;6.022;2022-07-23T01:30:07;3.92;;;2.20;;
70725;SDS011;58304;53.104;6.022;2022-07-23T01:32:33;4.10;;;2.10;;
70725;SDS011;58304;53.104;6.022;2022-07-23T01:34:59;3.53;;;2.13;;
70725;SDS011;58304;53.104;6.022;2022-07-23T01:37:25;3.88;;;2.50;;
70725;SDS011;58304;53.104;6.022;2022-07-23T01:39:50;4.47;;;2.40;;
70725;SDS011;58304;53.104;6.022;2022-07-23T01:42:16;3.63;;;2.33;;
70725;SDS011;58304;53.104;6.022;2022-07-23T01:44:42;3.78;;;2.47;;
70725;SDS011;58304;53.104;6.022;2022-07-23T01:47:07;4.25;;;2.17;;
70725;SDS011;58304;53.104;6.022;2022-07-23T01:49:33;5.15;;;2.40;;
70725;SDS011;58304;53.104;6.022;2022-07-23T01:51:58;6.13;;;2.65;;
70725;SDS011;58304;53.104;6.022;2022-07-23T01:56:54;4.75;;;2.20;;
70725;SDS011;58304;53.104;6.022;2022-07-23T01:59:20;2.50;;;1.52;;
70725;SDS011;58304;53.104;6.022;2022-07-23T02:01:46;3.78;;;1.20;;
70725;SDS011;58304;53.104;6.022;2022-07-23T02:04:11;3.60;;;2.10;;
70725;SDS011;58304;53.104;6.022;2022-07-23T02:06:37;3.97;;;2.30;;
70725;SDS011;58304;53.104;6.022;2022-07-23T02:09:03;3.75;;;2.40;;
70725;SDS011;58304;53.104;6.022;2022-07-23T02:11:28;4.68;;;2.72;;
70725;SDS011;58304;53.104;6.022;2022-07-23T02:13:54;5.78;;;2.70;;
70725;SDS011;58304;53.104;6.022;2022-07-23T02:16:20;6.60;;;3.00;;
70725;SDS011;58304;53.104;6.022;2022-07-23T02:18:45;3.55;;;1.98;;
70725;SDS011;58304;53.104;6.022;2022-07-23T02:21:11;3.45;;;1.70;;
70725;SDS011;58304;53.104;6.022;2022-07-23T02:23:37;3.38;;;1.23;;
70725;SDS011;58304;53.104;6.022;2022-07-23T02:26:03;2.55;;;1.17;;
70725;SDS011;58304;53.104;6.022;2022-07-23T02:28:29;2.33;;;1.27;;
70725;SDS011;58304;53.104;6.022;2022-07-23T02:30:55;2.15;;;1.30;;
70725;SDS011;58304;53.104;6.022;2022-07-23T02:33:20;2.53;;;1.45;;
70725;SDS011;58304;53.104;6.022;2022-07-23T02:35:46;2.80;;;1.38;;
70725;SDS011;58304;53.104;6.022;2022-07-23T02:38:12;3.92;;;1.65;;
70725;SDS011;58304;53.104;6.022;2022-07-23T02:40:38;5.38;;;2.05;;
70725;SDS011;58304;53.104;6.022;2022-07-23T02:43:03;4.13;;;2.40;;
70725;SDS011;58304;53.104;6.022;2022-07-23T02:45:32;2.80;;;1.70;;
70725;SDS011;58304;53.104;6.022;2022-07-23T02:47:57;4.07;;;1.60;;
70725;SDS011;58304;53.104;6.022;2022-07-23T02:50:24;2.95;;;1.70;;
70725;SDS011;58304;53.104;6.022;2022-07-23T02:52:50;2.45;;;1.48;;
70725;SDS011;58304;53.104;6.022;2022-07-23T02:55:15;2.97;;;1.70;;
70725;SDS011;58304;53.104;6.022;2022-07-23T02:57:41;2.55;;;1.48;;
70725;SDS011;58304;53.104;6.022;2022-07-23T03:00:07;10.82;;;1.77;;
70725;SDS011;58304;53.104;6.022;2022-07-23T03:02:33;3.00;;;1.88;;
70725;SDS011;58304;53.104;6.022;2022-07-23T03:04:59;3.30;;;1.80;;
70725;SDS011;58304;53.104;6.022;2022-07-23T03:07:24;3.33;;;1.83;;
70725;SDS011;58304;53.104;6.022;2022-07-23T03:09:50;4.35;;;1.70;;
70725;SDS011;58304;53.104;6.022;2022-07-23T03:12:16;5.85;;;1.70;;
70725;SDS011;58304;53.104;6.022;2022-07-23T03:14:41;3.30;;;2.08;;
70725;SDS011;58304;53.104;6.022;2022-07-23T03:17:07;2.97;;;1.67;;
70725;SDS011;58304;53.104;6.022;2022-07-23T03:19:33;2.17;;;1.20;;
70725;SDS011;58304;53.104;6.022;2022-07-23T03:21:59;1.70;;;1.00;;
70725;SDS011;58304;53.104;6.022;2022-07-23T03:24:24;2.00;;;1.20;;
70725;SDS011;58304;53.104;6.022;2022-07-23T03:27:10;3.30;;;1.20;;
70725;SDS011;58304;53.104;6.022;2022-07-23T03:29:36;3.53;;;1.58;;
70725;SDS011;58304;53.104;6.022;2022-07-23T03:32:02;2.25;;;1.33;;
70725;SDS011;58304;53.104;6.022;2022-07-23T03:34:29;2.75;;;1.58;;
70725;SDS011;58304;53.104;6.022;2022-07-23T03:36:54;3.78;;;1.90;;
70725;SDS011;58304;53.104;6.022;2022-07-23T03:39:20;4.80;;;1.83;;
70725;SDS011;58304;53.104;6.022;2022-07-23T03:41:46;4.45;;;2.65;;
70725;SDS011;58304;53.104;6.022;2022-07-23T03:44:11;4.13;;;2.33;;
70725;SDS011;58304;53.104;6.022;2022-07-23T03:46:37;3.75;;;2.10;;
70725;SDS011;58304;53.104;6.022;2022-07-23T03:49:02;5.38;;;2.40;;
70725;SDS011;58304;53.104;6.022;2022-07-23T03:51:28;5.03;;;2.35;;
70725;SDS011;58304;53.104;6.022;2022-07-23T03:53:54;2.75;;;1.63;;
70725;SDS011;58304;53.104;6.022;2022-07-23T03:56:20;5.28;;;2.03;;
70725;SDS011;58304;53.104;6.022;2022-07-23T03:58:46;3.13;;;1.80;;
70725;SDS011;58304;53.104;6.022;2022-07-23T04:01:12;3.22;;;1.73;;
70725;SDS011;58304;53.104;6.022;2022-07-23T04:03:38;3.97;;;2.17;;
70725;SDS011;58304;53.104;6.022;2022-07-23T04:06:05;4.15;;;2.40;;
70725;SDS011;58304;53.104;6.022;2022-07-23T04:08:31;5.53;;;2.58;;
70725;SDS011;58304;53.104;6.022;2022-07-23T04:10:57;3.97;;;2.28;;
70725;SDS011;58304;53.104;6.022;2022-07-23T04:13:23;5.90;;;2.53;;
70725;SDS011;58304;53.104;6.022;2022-07-23T04:15:48;4.70;;;2.90;;
70725;SDS011;58304;53.104;6.022;2022-07-23T04:18:15;3.67;;;2.03;;
70725;SDS011;58304;53.104;6.022;2022-07-23T04:20:42;5.68;;;2.90;;
70725;SDS011;58304;53.104;6.022;2022-07-23T04:23:11;4.75;;;2.67;;
70725;SDS011;58304;53.104;6.022;2022-07-23T04:25:37;4.07;;;2.45;;
70725;SDS011;58304;53.104;6.022;2022-07-23T04:28:03;3.97;;;2.30;;
70725;SDS011;58304;53.104;6.022;2022-07-23T04:30:29;3.42;;;1.90;;
70725;SDS011;58304;53.104;6.022;2022-07-23T04:32:54;3.88;;;2.10;;
70725;SDS011;58304;53.104;6.022;2022-07-23T04:35:22;4.60;;;2.30;;
70725;SDS011;58304;53.104;6.022;2022-07-23T04:37:48;5.35;;;2.40;;
70725;SDS011;58304;53.104;6.022;2022-07-23T04:40:14;4.55;;;2.55;;
70725;SDS011;58304;53.104;6.022;2022-07-23T04:42:40;5.00;;;2.47;;
70725;SDS011;58304;53.104;6.022;2022-07-23T04:45:05;4.60;;;2.40;;
70725;SDS011;58304;53.104;6.022;2022-07-23T04:47:31;4.85;;;2.40;;
70725;SDS011;58304;53.104;6.022;2022-07-23T04:49:57;5.97;;;3.13;;
70725;SDS011;58304;53.104;6.022;2022-07-23T04:52:23;5.30;;;2.90;;
70725;SDS011;58304;53.104;6.022;2022-07-23T04:54:49;6.22;;;3.22;;
70725;SDS011;58304;53.104;6.022;2022-07-23T04:57:15;5.63;;;2.90;;
70725;SDS011;58304;53.104;6.022;2022-07-23T04:59:41;6.32;;;3.20;;
70725;SDS011;58304;53.104;6.022;2022-07-23T05:02:08;5.75;;;2.78;;
70725;SDS011;58304;53.104;6.022;2022-07-23T05:04:33;5.25;;;2.80;;
70725;SDS011;58304;53.104;6.022;2022-07-23T05:06:59;5.80;;;3.40;;
70725;SDS011;58304;53.104;6.022;2022-07-23T05:09:26;6.15;;;3.30;;
70725;SDS011;58304;53.104;6.022;2022-07-23T05:11:52;6.15;;;3.40;;
70725;SDS011;58304;53.104;6.022;2022-07-23T05:14:18;5.75;;;2.80;;
70725;SDS011;58304;53.104;6.022;2022-07-23T05:16:43;6.05;;;3.20;;
70725;SDS011;58304;53.104;6.022;2022-07-23T05:19:09;6.00;;;2.97;;
70725;SDS011;58304;53.104;6.022;2022-07-23T05:21:35;6.50;;;3.22;;
70725;SDS011;58304;53.104;6.022;2022-07-23T05:24:00;7.38;;;2.80;;
70725;SDS011;58304;53.104;6.022;2022-07-23T05:26:26;7.90;;;2.83;;
70725;SDS011;58304;53.104;6.022;2022-07-23T05:28:52;5.90;;;3.40;;
70725;SDS011;58304;53.104;6.022;2022-07-23T05:31:18;6.22;;;3.42;;
70725;SDS011;58304;53.104;6.022;2022-07-23T05:33:43;4.80;;;3.03;;
70725;SDS011;58304;53.104;6.022;2022-07-23T05:36:09;5.25;;;3.40;;
70725;SDS011;58304;53.104;6.022;2022-07-23T05:38:35;4.97;;;3.00;;
70725;SDS011;58304;53.104;6.022;2022-07-23T05:41:01;5.97;;;3.30;;
70725;SDS011;58304;53.104;6.022;2022-07-23T05:43:26;5.47;;;3.42;;
70725;SDS011;58304;53.104;6.022;2022-07-23T05:45:52;5.65;;;3.47;;
70725;SDS011;58304;53.104;6.022;2022-07-23T05:48:18;6.78;;;3.78;;
70725;SDS011;58304;53.104;6.022;2022-07-23T05:50:44;8.52;;;3.55;;
70725;SDS011;58304;53.104;6.022;2022-07-23T05:53:10;5.93;;;3.40;;
70725;SDS011;58304;53.104;6.022;2022-07-23T05:55:36;8.80;;;3.08;;
70725;SDS011;58304;53.104;6.022;2022-07-23T05:58:01;6.90;;;2.60;;
70725;SDS011;58304;53.104;6.022;2022-07-23T06:00:27;5.57;;;2.25;;
70725;SDS011;58304;53.104;6.022;2022-07-23T06:02:53;4.90;;;2.45;;
70725;SDS011;58304;53.104;6.022;2022-07-23T06:05:19;3.28;;;1.70;;
70725;SDS011;58304;53.104;6.022;2022-07-23T06:07:45;3.63;;;1.80;;
70725;SDS011;58304;53.104;6.022;2022-07-23T06:10:10;7.25;;;1.80;;
70725;SDS011;58304;53.104;6.022;2022-07-23T06:12:36;5.53;;;1.77;;
70725;SDS011;58304;53.104;6.022;2022-07-23T06:15:03;4.60;;;1.60;;
70725;SDS011;58304;53.104;6.022;2022-07-23T06:17:29;3.17;;;1.40;;
70725;SDS011;58304;53.104;6.022;2022-07-23T06:19:54;3.88;;;1.60;;
70725;SDS011;58304;53.104;6.022;2022-07-23T06:22:21;3.28;;;1.52;;
70725;SDS011;58304;53.104;6.022;2022-07-23T06:24:47;5.13;;;1.40;;
70725;SDS011;58304;53.104;6.022;2022-07-23T06:27:13;4.60;;;1.42;;
70725;SDS011;58304;53.104;6.022;2022-07-23T06:29:39;3.45;;;1.40;;
70725;SDS011;58304;53.104;6.022;2022-07-23T06:32:06;2.45;;;1.30;;
70725;SDS011;58304;53.104;6.022;2022-07-23T06:34:32;2.15;;;1.20;;
70725;SDS011;58304;53.104;6.022;2022-07-23T06:36:58;2.03;;;1.10;;
70725;SDS011;58304;53.104;6.022;2022-07-23T06:39:24;3.78;;;1.25;;
70725;SDS011;58304;53.104;6.022;2022-07-23T06:41:50;2.05;;;1.20;;
70725;SDS011;58304;53.104;6.022;2022-07-23T06:44:15;2.10;;;1.05;;
70725;SDS011;58304;53.104;6.022;2022-07-23T06:46:41;3.38;;;1.00;;
70725;SDS011;58304;53.104;6.022;2022-07-23T06:49:07;1.48;;;0.90;;
70725;SDS011;58304;53.104;6.022;2022-07-23T06:51:32;4.45;;;1.00;;
70725;SDS011;58304;53.104;6.022;2022-07-23T06:53:58;2.22;;;0.90;;
70725;SDS011;58304;53.104;6.022;2022-07-23T06:56:24;2.60;;;0.60;;
70725;SDS011;58304;53.104;6.022;2022-07-23T06:58:50;1.38;;;0.70;;
70725;SDS011;58304;53.104;6.022;2022-07-23T07:01:15;1.77;;;0.80;;
70725;SDS011;58304;53.104;6.022;2022-07-23T07:03:41;2.80;;;0.70;;
70725;SDS011;58304;53.104;6.022;2022-07-23T07:06:07;1.25;;;0.70;;
70725;SDS011;58304;53.104;6.022;2022-07-23T07:08:32;1.23;;;0.60;;
70725;SDS011;58304;53.104;6.022;2022-07-23T07:10:58;2.28;;;0.70;;
70725;SDS011;58304;53.104;6.022;2022-07-23T07:13:23;0.88;;;0.63;;
70725;SDS011;58304;53.104;6.022;2022-07-23T07:15:49;1.02;;;0.70;;
70725;SDS011;58304;53.104;6.022;2022-07-23T07:18:15;2.17;;;0.75;;
70725;SDS011;58304;53.104;6.022;2022-07-23T07:20:40;3.58;;;0.77;;
70725;SDS011;58304;53.104;6.022;2022-07-23T07:23:06;2.17;;;0.68;;
70725;SDS011;58304;53.104;6.022;2022-07-23T07:25:31;1.42;;;0.70;;
70725;SDS011;58304;53.104;6.022;2022-07-23T07:27:57;1.25;;;0.70;;
70725;SDS011;58304;53.104;6.022;2022-07-23T07:30:23;2.85;;;0.60;;
70725;SDS011;58304;53.104;6.022;2022-07-23T07:32:48;1.08;;;0.60;;
70725;SDS011;58304;53.104;6.022;2022-07-23T07:35:14;2.00;;;0.70;;
70725;SDS011;58304;53.104;6.022;2022-07-23T07:37:39;1.48;;;0.60;;
70725;SDS011;58304;53.104;6.022;2022-07-23T07:40:05;3.28;;;0.80;;
70725;SDS011;58304;53.104;6.022;2022-07-23T07:42:31;1.52;;;0.70;;
70725;SDS011;58304;53.104;6.022;2022-07-23T07:44:57;2.65;;;0.60;;
70725;SDS011;58304;53.104;6.022;2022-07-23T07:47:23;1.13;;;0.50;;
70725;SDS011;58304;53.104;6.022;2022-07-23T07:49:49;1.23;;;0.60;;
70725;SDS011;58304;53.104;6.022;2022-07-23T07:52:14;1.67;;;0.50;;
70725;SDS011;58304;53.104;6.022;2022-07-23T07:54:40;1.52;;;0.75;;
70725;SDS011;58304;53.104;6.022;2022-07-23T07:57:05;1.50;;;0.60;;
70725;SDS011;58304;53.104;6.022;2022-07-23T07:59:31;0.75;;;0.55;;
70725;SDS011;58304;53.104;6.022;2022-07-23T08:01:57;2.00;;;0.65;;
70725;SDS011;58304;53.104;6.022;2022-07-23T08:04:22;0.70;;;0.52;;
70725;SDS011;58304;53.104;6.022;2022-07-23T08:06:48;0.95;;;0.60;;
70725;SDS011;58304;53.104;6.022;2022-07-23T08:09:13;2.88;;;0.80;;
70725;SDS011;58304;53.104;6.022;2022-07-23T08:11:39;1.38;;;0.65;;
70725;SDS011;58304;53.104;6.022;2022-07-23T08:14:05;3.00;;;0.70;;
70725;SDS011;58304;53.104;6.022;2022-07-23T08:16:30;1.27;;;0.60;;
70725;SDS011;58304;53.104;6.022;2022-07-23T08:18:56;1.27;;;0.70;;
70725;SDS011;58304;53.104;6.022;2022-07-23T08:21:22;1.00;;;0.50;;
70725;SDS011;58304;53.104;6.022;2022-07-23T08:23:47;1.27;;;0.60;;
70725;SDS011;58304;53.104;6.022;2022-07-23T08:26:13;1.98;;;0.60;;
70725;SDS011;58304;53.104;6.022;2022-07-23T08:28:38;0.65;;;0.60;;
70725;SDS011;58304;53.104;6.022;2022-07-23T08:31:04;0.70;;;0.50;;
70725;SDS011;58304;53.104;6.022;2022-07-23T08:33:30;1.60;;;0.60;;
70725;SDS011;58304;53.104;6.022;2022-07-23T08:35:56;1.52;;;0.70;;
70725;SDS011;58304;53.104;6.022;2022-07-23T08:38:22;1.23;;;0.60;;
70725;SDS011;58304;53.104;6.022;2022-07-23T08:40:50;1.42;;;0.60;;
70725;SDS011;58304;53.104;6.022;2022-07-23T08:43:20;1.27;;;0.60;;
70725;SDS011;58304;53.104;6.022;2022-07-23T08:45:50;1.63;;;0.60;;
70725;SDS011;58304;53.104;6.022;2022-07-23T08:48:22;2.65;;;0.88;;
70725;SDS011;58304;53.104;6.022;2022-07-23T08:50:52;2.22;;;0.60;;
70725;SDS011;58304;53.104;6.022;2022-07-23T08:53:20;0.85;;;0.60;;
70725;SDS011;58304;53.104;6.022;2022-07-23T08:55:47;2.75;;;0.90;;
70725;SDS011;58304;53.104;6.022;2022-07-23T08:58:15;3.25;;;0.70;;
70725;SDS011;58304;53.104;6.022;2022-07-23T09:00:42;3.88;;;0.75;;
70725;SDS011;58304;53.104;6.022;2022-07-23T09:03:12;1.38;;;0.70;;
70725;SDS011;58304;53.104;6.022;2022-07-23T09:05:41;1.67;;;0.70;;
70725;SDS011;58304;53.104;6.022;2022-07-23T09:13:30;3.97;;;0.95;;
70725;SDS011;58304;53.104;6.022;2022-07-23T09:16:00;3.40;;;1.00;;
70725;SDS011;58304;53.104;6.022;2022-07-23T09:21:13;2.60;;;0.70;;
70725;SDS011;58304;53.104;6.022;2022-07-23T09:29:08;3.40;;;0.80;;
70725;SDS011;58304;53.104;6.022;2022-07-23T09:34:14;1.95;;;0.68;;
70725;SDS011;58304;53.104;6.022;2022-07-23T09:36:42;3.05;;;0.60;;
70725;SDS011;58304;53.104;6.022;2022-07-23T09:39:08;1.48;;;0.60;;
70725;SDS011;58304;53.104;6.022;2022-07-23T09:41:36;2.15;;;0.60;;
70725;SDS011;58304;53.104;6.022;2022-07-23T09:44:08;1.83;;;1.02;;
70725;SDS011;58304;53.104;6.022;2022-07-23T09:46:35;2.38;;;0.73;;
70725;SDS011;58304;53.104;6.022;2022-07-23T09:49:09;2.60;;;0.60;;
70725;SDS011;58304;53.104;6.022;2022-07-23T09:52:10;1.80;;;0.70;;
70725;SDS011;58304;53.104;6.022;2022-07-23T09:54:36;3.38;;;0.90;;
70725;SDS011;58304;53.104;6.022;2022-07-23T09:57:10;2.38;;;0.93;;
70725;SDS011;58304;53.104;6.022;2022-07-23T09:59:41;2.90;;;0.80;;
70725;SDS011;58304;53.104;6.022;2022-07-23T10:02:11;1.60;;;0.77;;
70725;SDS011;58304;53.104;6.022;2022-07-23T10:04:38;1.38;;;0.70;;
70725;SDS011;58304;53.104;6.022;2022-07-23T10:07:05;1.90;;;0.70;;
70725;SDS011;58304;53.104;6.022;2022-07-23T10:09:35;1.48;;;0.70;;
70725;SDS011;58304;53.104;6.022;2022-07-23T10:12:03;2.55;;;0.90;;
70725;SDS011;58304;53.104;6.022;2022-07-23T10:14:48;1.90;;;0.80;;
70725;SDS011;58304;53.104;6.022;2022-07-23T10:17:16;2.75;;;0.85;;
70725;SDS011;58304;53.104;6.022;2022-07-23T10:19:43;1.80;;;0.80;;
70725;SDS011;58304;53.104;6.022;2022-07-23T10:37:45;2.30;;;0.93;;
70725;SDS011;58304;53.104;6.022;2022-07-23T10:40:17;2.10;;;0.82;;
70725;SDS011;58304;53.104;6.022;2022-07-23T10:42:45;2.30;;;0.90;;
70725;SDS011;58304;53.104;6.022;2022-07-23T10:45:25;2.97;;;1.10;;
70725;SDS011;58304;53.104;6.022;2022-07-23T10:47:56;2.33;;;1.08;;
70725;SDS011;58304;53.104;6.022;2022-07-23T10:50:38;4.13;;;1.02;;
70725;SDS011;58304;53.104;6.022;2022-07-23T10:57:56;2.40;;;0.95;;
70725;SDS011;58304;53.104;6.022;2022-07-23T11:00:23;2.30;;;1.00;;
70725;SDS011;58304;53.104;6.022;2022-07-23T11:02:58;3.45;;;1.13;;
70725;SDS011;58304;53.104;6.022;2022-07-23T11:05:25;2.00;;;0.93;;
70725;SDS011;58304;53.104;6.022;2022-07-23T11:08:13;3.50;;;0.90;;
70725;SDS011;58304;53.104;6.022;2022-07-23T11:10:52;1.87;;;0.90;;
70725;SDS011;58304;53.104;6.022;2022-07-23T11:13:28;1.85;;;0.98;;
70725;SDS011;58304;53.104;6.022;2022-07-23T11:24:06;1.63;;;1.15;;
70725;SDS011;58304;53.104;6.022;2022-07-23T11:31:59;2.60;;;1.00;;
70725;SDS011;58304;53.104;6.022;2022-07-23T11:34:43;2.10;;;1.00;;
70725;SDS011;58304;53.104;6.022;2022-07-23T11:37:27;2.33;;;1.20;;
70725;SDS011;58304;53.104;6.022;2022-07-23T11:40:14;2.25;;;1.25;;
70725;SDS011;58304;53.104;6.022;2022-07-23T11:42:51;2.58;;;1.27;;
70725;SDS011;58304;53.104;6.022;2022-07-23T11:45:17;2.03;;;0.90;;
70725;SDS011;58304;53.104;6.022;2022-07-23T11:47:43;1.52;;;0.90;;
70725;SDS011;58304;53.104;6.022;2022-07-23T11:50:08;3.42;;;1.10;;
70725;SDS011;58304;53.104;6.022;2022-07-23T11:52:34;1.48;;;0.90;;
70725;SDS011;58304;53.104;6.022;2022-07-23T11:55:05;2.03;;;1.10;;
70725;SDS011;58304;53.104;6.022;2022-07-23T11:57:34;4.00;;;1.10;;
70725;SDS011;58304;53.104;6.022;2022-07-23T12:00:08;2.25;;;1.17;;
70725;SDS011;58304;53.104;6.022;2022-07-23T12:02:38;2.85;;;1.30;;
70725;SDS011;58304;53.104;6.022;2022-07-23T12:05:04;2.85;;;1.00;;
70725;SDS011;58304;53.104;6.022;2022-07-23T12:07:38;2.10;;;1.10;;
70725;SDS011;58304;53.104;6.022;2022-07-23T12:12:50;2.65;;;1.20;;
70725;SDS011;58304;53.104;6.022;2022-07-23T12:15:27;2.05;;;1.00;;
70725;SDS011;58304;53.104;6.022;2022-07-23T12:18:02;2.17;;;1.00;;
70725;SDS011;58304;53.104;6.022;2022-07-23T12:20:29;2.42;;;1.02;;
70725;SDS011;58304;53.104;6.022;2022-07-23T12:23:01;4.03;;;1.05;;
70725;SDS011;58304;53.104;6.022;2022-07-23T12:25:29;3.00;;;1.10;;
70725;SDS011;58304;53.104;6.022;2022-07-23T12:27:58;2.85;;;1.23;;
70725;SDS011;58304;53.104;6.022;2022-07-23T12:30:38;2.50;;;1.17;;
70725;SDS011;58304;53.104;6.022;2022-07-23T12:33:05;2.42;;;1.23;;
70725;SDS011;58304;53.104;6.022;2022-07-23T12:35:34;2.15;;;1.23;;
70725;SDS011;58304;53.104;6.022;2022-07-23T12:38:07;2.38;;;1.20;;
70725;SDS011;58304;53.104;6.022;2022-07-23T12:40:41;2.08;;;1.02;;
70725;SDS011;58304;53.104;6.022;2022-07-23T12:43:09;3.63;;;1.13;;
70725;SDS011;58304;53.104;6.022;2022-07-23T12:45:44;3.45;;;1.20;;
70725;SDS011;58304;53.104;6.022;2022-07-23T12:48:24;2.45;;;1.10;;
70725;SDS011;58304;53.104;6.022;2022-07-23T12:50:58;2.63;;;1.40;;
70725;SDS011;58304;53.104;6.022;2022-07-23T12:56:05;2.72;;;1.00;;
70725;SDS011;58304;53.104;6.022;2022-07-23T13:06:30;3.60;;;1.30;;
70725;SDS011;58304;53.104;6.022;2022-07-23T13:08:57;3.72;;;1.30;;
70725;SDS011;58304;53.104;6.022;2022-07-23T13:11:23;3.15;;;1.23;;
70725;SDS011;58304;53.104;6.022;2022-07-23T13:13:49;3.35;;;1.20;;
70725;SDS011;58304;53.104;6.022;2022-07-23T13:16:14;2.97;;;1.20;;
70725;SDS011;58304;53.104;6.022;2022-07-23T13:18:40;3.85;;;1.40;;
70725;SDS011;58304;53.104;6.022;2022-07-23T13:21:06;2.03;;;1.30;;
70725;SDS011;58304;53.104;6.022;2022-07-23T13:23:32;3.35;;;1.02;;
70725;SDS011;58304;53.104;6.022;2022-07-23T13:25:58;2.25;;;1.10;;
70725;SDS011;58304;53.104;6.022;2022-07-23T13:28:24;2.47;;;1.20;;
70725;SDS011;58304;53.104;6.022;2022-07-23T13:30:50;3.40;;;1.40;;
70725;SDS011;58304;53.104;6.022;2022-07-23T13:33:20;2.35;;;1.30;;
70725;SDS011;58304;53.104;6.022;2022-07-23T13:35:46;3.35;;;1.40;;
70725;SDS011;58304;53.104;6.022;2022-07-23T13:38:13;3.80;;;1.38;;
70725;SDS011;58304;53.104;6.022;2022-07-23T13:40:40;2.72;;;1.17;;
70725;SDS011;58304;53.104;6.022;2022-07-23T13:43:08;3.70;;;1.17;;
70725;SDS011;58304;53.104;6.022;2022-07-23T13:45:36;2.50;;;1.27;;
70725;SDS011;58304;53.104;6.022;2022-07-23T13:48:03;2.70;;;1.17;;
70725;SDS011;58304;53.104;6.022;2022-07-23T13:50:29;3.40;;;1.30;;
70725;SDS011;58304;53.104;6.022;2022-07-23T13:52:54;2.88;;;1.13;;
70725;SDS011;58304;53.104;6.022;2022-07-23T13:55:20;2.75;;;1.23;;
70725;SDS011;58304;53.104;6.022;2022-07-23T13:57:46;2.72;;;1.20;;
70725;SDS011;58304;53.104;6.022;2022-07-23T14:00:11;2.60;;;1.30;;
70725;SDS011;58304;53.104;6.022;2022-07-23T14:02:38;2.15;;;1.10;;
70725;SDS011;58304;53.104;6.022;2022-07-23T14:05:05;3.58;;;1.10;;
70725;SDS011;58304;53.104;6.022;2022-07-23T14:07:32;1.88;;;1.05;;
70725;SDS011;58304;53.104;6.022;2022-07-23T14:09:58;3.80;;;1.10;;
70725;SDS011;58304;53.104;6.022;2022-07-23T14:12:24;2.40;;;1.30;;
70725;SDS011;58304;53.104;6.022;2022-07-23T14:14:50;2.40;;;1.17;;
70725;SDS011;58304;53.104;6.022;2022-07-23T14:17:15;5.97;;;1.48;;
70725;SDS011;58304;53.104;6.022;2022-07-23T14:19:41;2.90;;;1.10;;
70725;SDS011;58304;53.104;6.022;2022-07-23T14:22:06;5.22;;;1.20;;
70725;SDS011;58304;53.104;6.022;2022-07-23T14:24:32;1.80;;;1.30;;
70725;SDS011;58304;53.104;6.022;2022-07-23T14:26:59;2.83;;;1.10;;
70725;SDS011;58304;53.104;6.022;2022-07-23T14:29:26;1.73;;;1.10;;
70725;SDS011;58304;53.104;6.022;2022-07-23T14:31:52;2.40;;;1.40;;
70725;SDS011;58304;53.104;6.022;2022-07-23T14:34:17;2.60;;;1.20;;
70725;SDS011;58304;53.104;6.022;2022-07-23T14:36:43;1.92;;;1.10;;
70725;SDS011;58304;53.104;6.022;2022-07-23T14:39:09;4.25;;;1.30;;
70725;SDS011;58304;53.104;6.022;2022-07-23T14:41:36;2.78;;;1.42;;
70725;SDS011;58304;53.104;6.022;2022-07-23T14:44:02;2.05;;;1.20;;
70725;SDS011;58304;53.104;6.022;2022-07-23T14:46:28;3.72;;;1.60;;
70725;SDS011;58304;53.104;6.022;2022-07-23T14:48:53;3.15;;;1.33;;
70725;SDS011;58304;53.104;6.022;2022-07-23T14:51:19;2.88;;;1.35;;
70725;SDS011;58304;53.104;6.022;2022-07-23T14:53:45;3.40;;;1.40;;
70725;SDS011;58304;53.104;6.022;2022-07-23T14:56:11;1.90;;;1.20;;
70725;SDS011;58304;53.104;6.022;2022-07-23T14:58:38;2.53;;;1.30;;
70725;SDS011;58304;53.104;6.022;2022-07-23T15:01:04;2.70;;;1.30;;
70725;SDS011;58304;53.104;6.022;2022-07-23T15:03:30;4.30;;;1.30;;
70725;SDS011;58304;53.104;6.022;2022-07-23T15:05:55;2.00;;;1.20;;
70725;SDS011;58304;53.104;6.022;2022-07-23T15:08:21;4.30;;;1.40;;
70725;SDS011;58304;53.104;6.022;2022-07-23T15:10:47;3.53;;;1.20;;
70725;SDS011;58304;53.104;6.022;2022-07-23T15:13:13;2.35;;;1.40;;
70725;SDS011;58304;53.104;6.022;2022-07-23T15:15:39;3.22;;;1.50;;
70725;SDS011;58304;53.104;6.022;2022-07-23T15:18:05;3.70;;;1.40;;
70725;SDS011;58304;53.104;6.022;2022-07-23T15:20:31;4.35;;;1.42;;
70725;SDS011;58304;53.104;6.022;2022-07-23T15:22:57;2.97;;;1.30;;
70725;SDS011;58304;53.104;6.022;2022-07-23T15:25:23;3.25;;;1.40;;
70725;SDS011;58304;53.104;6.022;2022-07-23T15:27:49;4.50;;;1.60;;
70725;SDS011;58304;53.104;6.022;2022-07-23T15:30:15;3.22;;;1.52;;
70725;SDS011;58304;53.104;6.022;2022-07-23T15:32:41;3.28;;;1.45;;
70725;SDS011;58304;53.104;6.022;2022-07-23T15:35:07;3.70;;;1.33;;
70725;SDS011;58304;53.104;6.022;2022-07-23T15:37:33;3.75;;;1.30;;
70725;SDS011;58304;53.104;6.022;2022-07-23T15:39:59;2.78;;;1.25;;
70725;SDS011;58304;53.104;6.022;2022-07-23T15:42:26;7.63;;;1.55;;
70725;SDS011;58304;53.104;6.022;2022-07-23T15:44:52;4.18;;;1.67;;
70725;SDS011;58304;53.104;6.022;2022-07-23T15:47:20;2.10;;;1.33;;
70725;SDS011;58304;53.104;6.022;2022-07-23T15:49:46;6.07;;;1.58;;
70725;SDS011;58304;53.104;6.022;2022-07-23T15:52:12;3.17;;;1.50;;
70725;SDS011;58304;53.104;6.022;2022-07-23T15:54:38;3.60;;;1.55;;